Time;durP1;ratioP1;P1;durP2;ratioP2;P2;SDS_P1;SDS_P2;PMS_P1;PMS_P2;Temp;Humidity;BMP_temperature;BMP_pressure;BME280_temperature;BME280_humidity;BME280_pressure;Samples;Min_cycle;Max_cycle;Signal;HPM_P1;HPM_P2
2022/04/21 00:00:15;;;;;;;5.82;5.00;;;;;;;11.47;52.11;101113.81;3581508;39;20088;-62
2022/04/21 00:02:42;;;;;;;7.65;5.18;;;;;;;11.51;51.53;101126.13;3586662;39;20125;-64
2022/04/21 00:05:13;;;;;;;6.80;4.88;;;;;;;11.42;52.48;101110.53;3584985;39;20058;-63
2022/04/21 00:07:39;;;;;;;7.47;5.22;;;;;;;11.51;52.52;101115.38;3587809;39;20093;-62
2022/04/21 00:10:07;;;;;;;9.48;5.30;;;;;;;11.50;52.23;101110.91;3573810;39;20493;-64
2022/04/21 00:12:34;;;;;;;7.00;4.65;;;;;;;11.51;52.46;101119.84;3585671;39;20172;-63
2022/04/21 00:15:03;;;;;;;6.88;4.70;;;;;;;11.52;52.13;101119.78;3583440;39;20071;-62
2022/04/21 00:17:29;;;;;;;8.45;5.15;;;;;;;11.51;51.94;101114.47;3587106;39;20429;-63
2022/04/21 00:19:54;;;;;;;7.85;4.68;;;;;;;11.51;51.42;101122.56;3582187;39;20052;-63
2022/04/21 00:25:05;;;;;;;8.52;4.93;;;;;;;11.53;51.40;101123.34;3583625;39;20093;-63
2022/04/21 00:27:36;;;;;;;6.72;4.88;;;;;;;11.54;52.02;101119.66;3576569;39;20288;-63
2022/04/21 00:30:06;;;;;;;8.25;5.10;;;;;;;11.29;51.68;101080.81;3582685;39;20055;-64
2022/04/21 00:32:36;;;;;;;8.73;4.90;;;;;;;11.46;51.87;101103.13;3579235;39;20105;-63
2022/04/21 00:35:04;;;;;;;6.63;4.80;;;;;;;11.52;51.70;101105.47;3581984;39;20056;-63
2022/04/21 00:37:30;;;;;;;7.57;5.20;;;;;;;11.54;52.26;101111.59;3588373;39;20070;-63
2022/04/21 00:39:55;;;;;;;7.25;4.80;;;;;;;11.56;51.70;101115.06;3591820;39;20059;-64
2022/04/21 00:42:22;;;;;;;6.20;4.88;;;;;;;11.50;51.46;101104.69;3572188;39;20067;-63
2022/04/21 00:44:49;;;;;;;5.90;5.07;;;;;;;11.55;51.41;101116.91;3586890;39;20149;-63
2022/04/21 00:47:17;;;;;;;7.50;5.20;;;;;;;11.42;51.56;101090.81;3571604;39;20365;-63
2022/04/21 00:49:44;;;;;;;7.82;5.20;;;;;;;11.52;51.54;101105.47;3582822;39;20101;-63
2022/04/21 00:52:11;;;;;;;7.15;4.75;;;;;;;11.50;52.29;101107.38;3589272;39;20059;-63
2022/04/21 00:54:36;;;;;;;7.22;4.68;;;;;;;11.46;51.65;101106.69;3586668;39;20111;-63
2022/04/21 00:57:04;;;;;;;5.53;4.80;;;;;;;11.44;51.67;101110.44;3574468;39;20071;-63
2022/04/21 00:59:31;;;;;;;6.65;5.15;;;;;;;11.39;51.94;101100.81;3576503;39;20382;-63
2022/04/21 01:04:42;;;;;;;9.32;5.22;;;;;;;11.28;52.96;101099.72;3583633;39;20055;-63
2022/04/21 01:07:11;;;;;;;8.88;4.78;;;;;;;11.17;53.18;101100.38;3584539;39;20059;-63
2022/04/21 01:09:38;;;;;;;7.43;4.97;;;;;;;11.13;53.66;101096.13;3589473;39;20075;-64
2022/04/21 01:12:23;;;;;;;5.35;4.25;;;;;;;11.02;53.50;101093.22;3584904;39;20139;-63
2022/04/21 01:14:49;;;;;;;6.65;4.88;;;;;;;11.03;53.18;101103.03;3585549;39;20067;-63
2022/04/21 01:17:15;;;;;;;7.32;4.80;;;;;;;10.98;53.89;101113.22;3582525;39;20047;-63
2022/04/21 01:19:41;;;;;;;6.07;5.25;;;;;;;10.88;54.08;101099.44;3583319;39;20149;-63
2022/04/21 01:22:07;;;;;;;7.88;5.20;;;;;;;10.84;53.98;101097.84;3585264;39;20063;-63
2022/04/21 01:24:33;;;;;;;8.38;5.35;;;;;;;10.85;54.05;101097.78;3589867;39;20062;-63
2022/04/21 01:27:01;;;;;;;7.72;5.50;;;;;;;10.81;53.56;101108.78;3590341;39;20060;-64
2022/04/21 01:29:27;;;;;;;6.05;5.05;;;;;;;10.77;53.74;101096.50;3577298;39;20149;-63
2022/04/21 01:31:54;;;;;;;9.02;5.35;;;;;;;10.75;54.15;101099.28;3590530;39;20151;-63
2022/04/21 01:34:20;;;;;;;8.80;5.40;;;;;;;10.74;54.47;101097.53;3582927;39;20625;-64
2022/04/21 01:42:17;;;;;;;;;;;;;;;10.62;54.25;101085.66;3590701;39;20053;-64
2022/04/21 01:44:43;;;;;;;7.28;5.07;;;;;;;10.62;54.25;101088.34;3573746;39;19951;-64
2022/04/21 01:47:11;;;;;;;5.10;4.60;;;;;;;10.54;54.83;101084.38;3590226;39;20065;-64
2022/04/21 01:49:36;;;;;;;8.00;5.05;;;;;;;10.58;55.16;101096.69;3582868;39;20288;-63
2022/04/21 01:52:02;;;;;;;7.80;5.50;;;;;;;10.56;55.12;101093.22;3591134;39;20048;-63
2022/04/21 01:54:28;;;;;;;9.48;5.88;;;;;;;10.55;54.81;101096.88;3582291;39;20335;-63
2022/04/21 01:56:54;;;;;;;7.90;5.47;;;;;;;10.52;55.02;101088.97;3591878;39;20071;-64
2022/04/21 01:59:19;;;;;;;7.07;5.70;;;;;;;10.51;55.08;101089.94;3581154;39;20334;-63
2022/04/21 02:01:45;;;;;;;7.40;5.32;;;;;;;10.45;55.38;101092.00;3581687;39;20066;-63
2022/04/21 02:04:11;;;;;;;7.55;5.43;;;;;;;10.43;55.33;101088.56;3588846;39;21185;-63
2022/04/21 02:06:36;;;;;;;7.07;5.80;;;;;;;10.43;55.51;101087.66;3584085;39;20627;-64
2022/04/21 02:09:02;;;;;;;7.20;5.35;;;;;;;10.27;55.56;101063.50;3584136;39;20294;-64
2022/04/21 02:11:28;;;;;;;9.77;5.65;;;;;;;10.38;55.66;101087.09;3588884;39;20065;-63
2022/04/21 02:13:53;;;;;;;8.38;5.90;;;;;;;10.36;55.86;101089.84;3589500;39;20055;-62
2022/04/21 02:16:20;;;;;;;7.75;5.40;;;;;;;10.31;56.00;101083.88;3575934;39;20067;-65
2022/04/21 02:18:47;;;;;;;9.32;5.82;;;;;;;10.28;55.54;101094.81;3585859;39;20102;-63
2022/04/21 02:21:12;;;;;;;7.63;6.18;;;;;;;10.26;55.82;101091.31;3582867;39;20059;-63
2022/04/21 02:23:38;;;;;;;6.72;5.72;;;;;;;10.13;55.97;101071.44;3590439;39;20067;-64
2022/04/21 02:26:03;;;;;;;9.82;5.70;;;;;;;10.20;56.17;101094.31;3584713;39;20059;-64
2022/04/21 02:28:29;;;;;;;8.43;5.80;;;;;;;10.18;55.46;101098.91;3585927;39;20059;-64
2022/04/21 02:30:55;;;;;;;6.53;5.72;;;;;;;10.10;56.24;101090.41;3582737;39;20374;-64
2022/04/21 02:33:20;;;;;;;6.95;5.30;;;;;;;10.10;55.60;101091.28;3581913;39;20048;-63
2022/04/21 02:35:47;;;;;;;10.77;6.25;;;;;;;10.09;56.02;101088.69;3582632;39;20087;-63
2022/04/21 02:38:12;;;;;;;10.05;6.35;;;;;;;9.90;56.42;101067.38;3589676;39;20067;-63
2022/04/21 02:40:38;;;;;;;9.70;6.32;;;;;;;10.02;56.23;101084.59;3581591;39;20069;-63
2022/04/21 02:43:04;;;;;;;6.88;6.03;;;;;;;9.97;56.82;101088.41;3589980;39;20058;-63
2022/04/21 02:45:29;;;;;;;7.28;5.82;;;;;;;9.93;56.85;101077.94;3578963;39;21000;-64
2022/04/21 02:47:55;;;;;;;8.25;5.88;;;;;;;9.90;57.06;101087.03;3583273;39;20064;-62
2022/04/21 02:50:21;;;;;;;7.97;6.32;;;;;;;9.84;56.45;101087.34;3585051;39;20048;-62
2022/04/21 02:52:47;;;;;;;8.43;6.07;;;;;;;9.80;56.98;101092.97;3585942;39;20070;-62
2022/04/21 02:57:59;;;;;;;10.27;5.88;;;;;;;9.77;57.23;101094.00;3590230;39;20101;-63
2022/04/21 03:00:25;;;;;;;6.63;5.90;;;;;;;9.58;57.25;101058.34;3586092;39;20051;-62
2022/04/21 03:02:51;;;;;;;17.85;6.80;;;;;;;9.77;57.15;101086.81;3580601;39;20059;-62
2022/04/21 03:05:17;;;;;;;8.85;6.20;;;;;;;9.76;56.96;101086.91;3588190;39;20352;-61
2022/04/21 03:07:42;;;;;;;10.80;6.32;;;;;;;9.74;57.44;101083.44;3587210;39;20136;-62
2022/04/21 03:10:09;;;;;;;9.23;6.30;;;;;;;9.69;57.31;101078.31;3591528;39;20040;-62
2022/04/21 03:12:35;;;;;;;7.95;6.68;;;;;;;9.71;56.98;101080.94;3582199;39;20067;-61
2022/04/21 03:15:01;;;;;;;9.35;5.63;;;;;;;9.70;57.28;101081.84;3591507;39;20060;-62
2022/04/21 03:17:29;;;;;;;7.93;5.97;;;;;;;9.70;57.58;101076.47;3579291;39;20044;-61
2022/04/21 03:19:54;;;;;;;7.93;5.68;;;;;;;9.67;57.09;101072.19;3587085;39;20086;-62
2022/04/21 03:25:10;;;;;;;8.38;5.80;;;;;;;9.64;57.83;101074.13;3590354;39;20081;-62
2022/04/21 03:27:36;;;;;;;9.68;5.93;;;;;;;9.54;57.42;101071.94;3583308;39;20833;-62
2022/04/21 03:30:06;;;;;;;7.25;6.10;;;;;;;9.58;57.64;101088.78;3590868;39;20048;-62
2022/04/21 03:32:32;;;;;;;8.20;5.53;;;;;;;9.53;57.41;101088.13;3579322;39;20091;-62
2022/04/21 03:35:00;;;;;;;7.30;5.55;;;;;;;9.52;57.76;101084.59;3588943;39;20108;-62
2022/04/21 03:37:26;;;;;;;8.32;6.38;;;;;;;9.48;57.84;101091.09;3572947;39;20040;-61
2022/04/21 03:39:51;;;;;;;10.65;5.65;;;;;;;9.45;58.01;101084.97;3594259;39;20055;-62
2022/04/21 03:42:28;;;;;;;7.45;6.05;;;;;;;9.43;57.34;101078.84;3581702;39;20410;-62
2022/04/21 03:44:55;;;;;;;8.68;6.38;;;;;;;9.41;58.24;101081.59;3589878;39;20085;-62
2022/04/21 03:47:21;;;;;;;8.52;5.70;;;;;;;9.16;58.04;101049.81;3580064;39;20100;-62
2022/04/21 03:49:47;;;;;;;7.38;6.10;;;;;;;9.13;58.15;101046.44;3588489;39;20067;-62
2022/04/21 03:52:14;;;;;;;8.90;6.10;;;;;;;8.71;58.26;100983.38;3587137;39;20047;-62
2022/04/21 03:54:40;;;;;;;7.45;6.15;;;;;;;9.32;58.14;101090.13;3628332;22;20136;-67
2022/04/21 03:57:07;;;;;;;8.60;6.15;;;;;;;9.30;58.16;101094.72;3590749;39;20079;-68
2022/04/21 03:59:34;;;;;;;6.43;5.50;;;;;;;9.23;58.17;101086.13;3589657;39;20043;-67
2022/04/21 04:02:02;;;;;;;9.07;6.32;;;;;;;9.23;58.44;101093.31;3585463;39;20047;-67
2022/04/21 04:04:36;;;;;;;11.27;6.10;;;;;;;9.19;58.85;101095.25;3588556;39;20372;-68
2022/04/21 04:12:35;;;;;;;9.32;6.25;;;;;;;8.84;58.78;101062.22;3585040;39;20049;-67
2022/04/21 04:15:04;;;;;;;8.80;6.05;;;;;;;8.93;58.79;101075.16;3591206;39;20063;-67
2022/04/21 04:17:30;;;;;;;10.38;6.10;;;;;;;8.84;58.75;101059.53;3579155;39;20060;-66
2022/04/21 04:19:56;;;;;;;11.10;6.43;;;;;;;8.98;58.44;101080.31;3589537;39;20167;-66
2022/04/21 04:22:22;;;;;;;9.70;6.10;;;;;;;8.99;59.04;101090.94;3584400;39;20073;-67
2022/04/21 04:24:50;;;;;;;10.70;6.75;;;;;;;8.91;58.98;101074.38;3588395;39;20048;-66
2022/04/21 04:27:16;;;;;;;10.18;6.93;;;;;;;8.44;59.14;101013.34;3591084;39;20305;-67
2022/04/21 04:29:41;;;;;;;10.88;7.03;;;;;;;8.86;59.64;101079.09;3584620;39;20062;-66
2022/04/21 04:32:07;;;;;;;10.23;6.88;;;;;;;8.92;59.81;101089.53;3582144;39;20052;-66
2022/04/21 04:34:33;;;;;;;10.20;6.93;;;;;;;8.84;59.19;101070.25;3588230;39;20098;-66
2022/04/21 04:36:58;;;;;;;10.13;6.63;;;;;;;8.88;59.00;101081.69;3591032;39;20492;-66
2022/04/21 04:39:24;;;;;;;8.75;6.65;;;;;;;8.89;59.29;101084.31;3584336;39;20592;-67
2022/04/21 04:44:34;;;;;;;;;;;;;;;8.79;59.15;101072.31;3583415;39;20823;-67
2022/04/21 04:46:59;;;;;;;11.32;7.00;;;;;;;8.94;59.15;101100.16;3590768;39;19931;-65
2022/04/21 04:49:25;;;;;;;9.93;6.88;;;;;;;8.92;58.89;101091.34;3586050;39;20136;-67
2022/04/21 04:51:51;;;;;;;11.88;7.00;;;;;;;8.88;58.48;101090.63;3597117;39;20390;-65
2022/04/21 04:54:17;;;;;;;9.38;6.60;;;;;;;8.95;59.55;101109.94;3588158;39;20058;-65
2022/04/21 04:56:45;;;;;;;9.30;7.43;;;;;;;8.96;59.09;101107.19;3591477;39;20607;-64
2022/04/21 04:59:11;;;;;;;11.00;7.05;;;;;;;8.93;59.33;101096.59;3583512;39;20051;-65
2022/04/21 05:01:42;;;;;;;9.18;7.00;;;;;;;9.00;59.45;101100.69;3584441;39;20742;-66
2022/04/21 05:04:10;;;;;;;10.80;6.60;;;;;;;9.02;58.76;101101.50;3582586;39;20128;-65
2022/04/21 05:06:48;;;;;;;11.25;6.55;;;;;;;9.05;59.25;101106.72;3592425;39;20617;-65
2022/04/21 05:09:18;;;;;;;7.75;6.20;;;;;;;9.10;59.02;101106.47;3587469;39;20065;-65
2022/04/21 05:11:47;;;;;;;8.60;6.60;;;;;;;9.15;58.46;101096.38;3594492;39;20133;-65
2022/04/21 05:14:14;;;;;;;10.77;6.28;;;;;;;9.20;58.43;101098.84;3587266;39;20445;-66
2022/04/21 05:16:40;;;;;;;8.55;6.07;;;;;;;9.18;58.63;101090.00;3592137;39;20110;-65
2022/04/21 05:19:08;;;;;;;9.80;6.40;;;;;;;9.21;59.00;101095.19;3580379;39;22023;-64
2022/04/21 05:21:35;;;;;;;9.68;6.45;;;;;;;9.26;58.45;101085.06;3589359;39;20226;-65
2022/04/21 05:24:03;;;;;;;9.15;7.30;;;;;;;9.28;58.87;101080.50;3585066;39;20443;-65
2022/04/21 05:26:31;;;;;;;9.65;7.03;;;;;;;9.40;58.83;101089.75;3589842;39;20603;-65
2022/04/21 05:29:00;;;;;;;9.00;7.20;;;;;;;9.44;58.14;101086.81;3585272;39;20051;-65
2022/04/21 05:31:26;;;;;;;13.88;7.25;;;;;;;9.56;57.61;101100.53;3587161;39;20063;-65
2022/04/21 05:33:56;;;;;;;14.68;6.70;;;;;;;9.65;57.83;101100.03;3587183;39;20063;-66
2022/04/21 05:36:22;;;;;;;8.80;6.75;;;;;;;9.73;56.45;101087.06;3580346;39;20137;-65
2022/04/21 05:38:51;;;;;;;8.00;6.35;;;;;;;9.86;56.52;101093.50;3584121;39;21789;-66
2022/04/21 05:41:18;;;;;;;9.55;5.97;;;;;;;9.93;55.47;101092.22;3589859;39;20105;-66
2022/04/21 05:43:46;;;;;;;7.65;6.30;;;;;;;9.97;56.07;101090.22;3583528;39;20528;-65
2022/04/21 05:46:15;;;;;;;8.77;6.72;;;;;;;10.00;55.38;101092.75;3591789;39;20161;-66
2022/04/21 05:48:43;;;;;;;7.00;6.22;;;;;;;10.00;55.63;101082.00;3578521;39;21317;-65
2022/04/21 05:51:11;;;;;;;9.93;6.30;;;;;;;10.09;55.90;101094.06;3581911;39;20073;-67
2022/04/21 05:53:47;;;;;;;9.05;6.40;;;;;;;10.14;55.57;101100.03;3588160;39;20458;-65
2022/04/21 05:56:13;;;;;;;8.30;6.20;;;;;;;10.09;55.50;101075.28;3587485;39;20056;-66
2022/04/21 05:58:38;;;;;;;9.27;6.68;;;;;;;10.18;55.12;101094.44;3591292;39;20162;-65
2022/04/21 06:01:09;;;;;;;11.27;6.90;;;;;;;10.12;55.13;101073.28;3586569;39;20124;-66
2022/04/21 06:03:41;;;;;;;9.02;6.70;;;;;;;10.20;54.89;101089.81;3588600;39;20059;-65
2022/04/21 06:06:09;;;;;;;10.82;6.80;;;;;;;10.22;54.94;101089.75;3581294;39;20087;-64
2022/04/21 06:08:36;;;;;;;9.68;6.80;;;;;;;10.25;55.42;101088.72;3588053;39;20176;-67
2022/04/21 06:11:03;;;;;;;9.35;7.22;;;;;;;10.30;54.56;101095.56;3585927;39;20073;-65
2022/04/21 06:13:30;;;;;;;10.38;7.43;;;;;;;10.32;55.21;101092.81;3590878;39;20088;-65
2022/04/21 06:15:57;;;;;;;8.43;6.68;;;;;;;10.35;54.34;101080.06;3586803;39;20047;-65
2022/04/21 06:18:24;;;;;;;8.73;6.65;;;;;;;10.30;53.84;101068.69;3591015;39;20050;-65
2022/04/21 06:20:54;;;;;;;9.10;6.82;;;;;;;10.37;53.60;101075.47;3589983;39;20056;-67
2022/04/21 06:23:21;;;;;;;10.10;6.70;;;;;;;10.56;53.68;101086.03;3583179;39;20052;-65
2022/04/21 06:25:47;;;;;;;9.60;6.47;;;;;;;10.59;53.15;101087.66;3584228;39;20068;-65
2022/04/21 06:28:15;;;;;;;8.73;6.90;;;;;;;10.75;52.84;101087.63;3590031;39;20097;-67
2022/04/21 06:30:41;;;;;;;10.63;6.60;;;;;;;10.85;52.57;101083.47;3588767;39;20675;-65
2022/04/21 06:33:07;;;;;;;8.32;6.63;;;;;;;10.96;54.08;101074.75;3584898;39;20044;-65
2022/04/21 06:35:32;;;;;;;7.10;6.32;;;;;;;11.19;52.26;101081.44;3588293;39;20128;-65
2022/04/21 06:37:58;;;;;;;8.98;6.05;;;;;;;11.53;51.87;101080.25;3583120;39;20064;-65
2022/04/21 06:40:24;;;;;;;11.77;6.82;;;;;;;11.89;51.66;101076.25;3585649;39;20055;-67
2022/04/21 06:42:50;;;;;;;7.68;6.47;;;;;;;12.28;49.71;101068.31;3590827;39;20047;-65
2022/04/21 06:48:08;;;;;;;8.88;5.95;;;;;;;13.10;47.20;101066.44;3586228;39;20041;-65
2022/04/21 06:50:39;;;;;;;8.68;5.95;;;;;;;13.42;46.09;101069.66;3586284;39;20055;-66
2022/04/21 06:53:10;;;;;;;10.00;6.10;;;;;;;13.79;44.90;101064.31;3579880;39;20076;-66
2022/04/21 06:55:35;;;;;;;7.45;5.72;;;;;;;14.03;45.49;101067.09;3589265;39;20130;-66
2022/04/21 06:58:02;;;;;;;9.23;5.88;;;;;;;14.24;45.06;101064.69;3583357;39;20567;-65
2022/04/21 07:00:28;;;;;;;7.47;5.90;;;;;;;14.27;44.01;101061.75;3587510;39;20051;-66
2022/04/21 07:02:57;;;;;;;9.77;5.80;;;;;;;14.41;43.46;101060.72;3582232;39;20156;-66
2022/04/21 07:05:25;;;;;;;9.15;5.53;;;;;;;14.68;42.73;101063.22;3586896;39;20128;-66
2022/04/21 07:07:51;;;;;;;9.77;5.70;;;;;;;15.01;41.60;101076.06;3579788;39;20055;-66
2022/04/21 07:10:20;;;;;;;9.55;5.75;;;;;;;15.22;41.98;101072.66;3590825;39;20393;-66
2022/04/21 07:12:46;;;;;;;8.43;5.35;;;;;;;15.42;41.22;101072.00;3584245;39;20087;-66
2022/04/21 07:15:14;;;;;;;8.77;5.88;;;;;;;15.62;40.85;101066.84;3590920;39;20501;-66
2022/04/21 07:17:40;;;;;;;8.13;5.57;;;;;;;15.83;40.49;101078.75;3589037;39;20062;-66
2022/04/21 07:20:09;;;;;;;8.07;5.65;;;;;;;15.98;39.44;101066.66;3583089;39;20360;-65
2022/04/21 07:22:35;;;;;;;10.00;5.43;;;;;;;15.99;39.40;101043.13;3583628;39;20067;-66
2022/04/21 07:25:06;;;;;;;6.95;5.30;;;;;;;16.28;39.50;101067.00;3581592;39;20139;-66
2022/04/21 07:27:32;;;;;;;7.07;5.47;;;;;;;16.47;38.00;101065.34;3585171;39;20630;-66
2022/04/21 07:29:57;;;;;;;6.68;5.35;;;;;;;16.67;37.62;101068.25;3590640;39;20054;-66
2022/04/21 07:32:23;;;;;;;6.18;5.18;;;;;;;16.78;37.82;101076.41;3589784;39;20297;-66
2022/04/21 07:34:49;;;;;;;12.65;5.30;;;;;;;16.99;37.23;101070.13;3579027;39;20059;-66
2022/04/21 07:37:14;;;;;;;7.82;4.65;;;;;;;17.20;35.76;101084.59;3591688;39;20055;-66
2022/04/21 07:39:40;;;;;;;9.40;5.85;;;;;;;17.32;35.62;101066.41;3573898;39;21652;-69
2022/04/21 07:42:08;;;;;;;5.25;4.50;;;;;;;17.50;35.99;101080.22;3588709;39;20105;-65
2022/04/21 07:44:37;;;;;;;5.30;4.53;;;;;;;17.58;36.65;101075.84;3582041;39;20079;-64
2022/04/21 07:47:04;;;;;;;7.47;4.90;;;;;;;17.70;36.78;101073.94;3592706;39;20067;-64
2022/04/21 07:49:48;;;;;;;7.82;4.78;;;;;;;17.88;38.70;101068.72;3581092;39;20055;-64
2022/04/21 07:55:17;;;;;;;6.85;5.50;;;;;;;18.07;39.64;101070.66;3579468;39;20058;-65
2022/04/21 07:57:45;;;;;;;13.88;5.95;;;;;;;18.05;39.03;101073.53;3588895;39;20718;-65
2022/04/21 08:00:14;;;;;;;9.23;5.22;;;;;;;18.06;38.57;101068.97;3583563;39;20341;-65
2022/04/21 08:02:42;;;;;;;9.73;4.65;;;;;;;18.09;36.14;101074.13;3589053;39;20056;-66
2022/04/21 08:05:11;;;;;;;9.05;5.05;;;;;;;18.12;36.98;101065.69;3587429;39;20060;-66
2022/04/21 08:07:37;;;;;;;8.90;5.25;;;;;;;18.26;36.70;101061.72;3585587;39;20075;-66
2022/04/21 08:10:09;;;;;;;11.57;5.30;;;;;;;18.40;36.51;101076.81;3579387;39;20068;-65
2022/04/21 08:12:42;;;;;;;10.38;5.28;;;;;;;18.24;36.10;101072.75;3587669;39;20058;-65
2022/04/21 08:15:11;;;;;;;7.03;4.72;;;;;;;18.27;36.38;101067.03;3583804;39;20059;-65
2022/04/21 08:17:38;;;;;;;10.13;5.28;;;;;;;18.30;37.21;101066.75;3589397;39;20219;-66
2022/04/21 08:20:08;;;;;;;12.32;5.57;;;;;;;18.47;37.34;101073.38;3592343;39;20418;-67
2022/04/21 08:22:34;;;;;;;6.20;5.18;;;;;;;18.59;36.35;101079.56;3578123;39;20055;-66
2022/04/21 08:33:14;;;;;;;4.93;4.43;;;;;;;18.78;36.22;101074.19;3589228;39;20074;-68
2022/04/21 08:35:41;;;;;;;9.27;4.82;;;;;;;18.87;37.01;101067.03;3579148;39;20089;-66
2022/04/21 08:38:09;;;;;;;8.35;4.72;;;;;;;19.06;36.79;101077.06;3586355;39;20124;-67
2022/04/21 08:40:37;;;;;;;9.07;4.82;;;;;;;19.15;36.59;101078.91;3591429;39;20056;-66
2022/04/21 08:43:15;;;;;;;6.25;4.95;;;;;;;19.30;36.15;101079.31;3580389;39;20051;-66
2022/04/21 08:45:47;;;;;;;7.63;5.30;;;;;;;19.53;36.67;101082.56;3584146;39;20198;-66
2022/04/21 08:48:16;;;;;;;6.20;5.00;;;;;;;19.55;35.79;101064.22;3590696;39;20176;-67
2022/04/21 08:50:43;;;;;;;8.85;5.07;;;;;;;19.58;36.39;101069.38;3589678;39;20060;-66
2022/04/21 08:53:15;;;;;;;8.65;5.03;;;;;;;19.56;36.10;101074.09;3581539;39;20058;-67
2022/04/21 08:55:41;;;;;;;6.82;4.70;;;;;;;19.60;36.26;101067.38;3588412;39;20110;-66
2022/04/21 08:58:06;;;;;;;5.03;4.60;;;;;;;19.68;35.62;101072.97;3579480;39;20406;-67
2022/04/21 09:00:32;;;;;;;5.00;4.15;;;;;;;19.88;35.87;101064.69;3582588;39;20132;-67
2022/04/21 09:02:59;;;;;;;6.47;4.28;;;;;;;20.16;35.95;101055.53;3584210;39;20610;-67
2022/04/21 09:05:29;;;;;;;5.93;4.70;;;;;;;20.30;35.72;101053.31;3590420;39;20063;-67
2022/04/21 09:07:57;;;;;;;5.35;3.90;;;;;;;20.37;34.19;101052.56;3584486;39;20060;-66
2022/04/21 09:10:25;;;;;;;5.25;3.78;;;;;;;20.40;34.59;101056.84;3586183;39;20048;-67
2022/04/21 09:12:58;;;;;;;6.40;3.65;;;;;;;20.52;34.31;101057.50;3591647;39;20060;-66
2022/04/21 09:15:31;;;;;;;6.43;3.72;;;;;;;20.36;33.49;101042.66;3569994;39;20070;-66
2022/04/21 09:18:07;;;;;;;6.50;4.78;;;;;;;20.50;33.49;101043.13;3587679;39;20052;-66
2022/04/21 09:20:35;;;;;;;4.15;3.20;;;;;;;20.73;31.19;101049.88;3588678;39;20631;-65
2022/04/21 09:23:05;;;;;;;3.25;2.95;;;;;;;21.01;31.49;101036.16;3588674;39;20083;-67
2022/04/21 09:25:47;;;;;;;3.63;3.13;;;;;;;21.17;31.81;101032.69;3579319;39;20140;-65
2022/04/21 09:28:41;;;;;;;2.78;2.30;;;;;;;21.07;30.71;101033.63;3583813;39;20404;-67
2022/04/21 09:31:10;;;;;;;5.53;2.60;;;;;;;21.39;31.06;101025.88;3589254;39;20052;-67
2022/04/21 09:33:44;;;;;;;6.35;2.60;;;;;;;21.46;30.57;101033.25;3582745;39;20051;-67
2022/04/21 09:36:11;;;;;;;6.03;2.60;;;;;;;21.43;29.40;101033.59;3591787;39;20055;-66
2022/04/21 09:38:37;;;;;;;2.83;2.60;;;;;;;21.44;29.64;101031.72;3579036;39;21160;-66
2022/04/21 09:41:11;;;;;;;2.50;2.30;;;;;;;21.52;29.23;101040.84;3588548;39;20352;-66
2022/04/21 09:43:39;;;;;;;3.13;2.58;;;;;;;21.50;28.65;101037.41;3579263;39;21298;-66
2022/04/21 09:46:21;;;;;;;3.42;2.78;;;;;;;21.15;29.57;100963.63;3582213;39;20420;-66
2022/04/21 09:48:53;;;;;;;6.28;3.13;;;;;;;21.72;29.46;101035.13;3590731;39;20063;-67
2022/04/21 09:51:28;;;;;;;6.72;3.70;;;;;;;21.46;30.42;101016.00;3589502;39;20153;-67
2022/04/21 09:54:04;;;;;;;3.85;3.55;;;;;;;21.52;30.50;101029.88;3627882;22;20079;-62
2022/04/21 09:56:37;;;;;;;4.32;3.40;;;;;;;21.37;30.66;101031.50;3583555;39;20060;-61
2022/04/21 09:59:10;;;;;;;6.20;3.25;;;;;;;21.58;30.66;101028.41;3594291;39;20043;-62
2022/04/21 10:01:42;;;;;;;4.45;2.65;;;;;;;21.68;29.06;101020.06;3583865;39;20196;-62
2022/04/21 10:04:11;;;;;;;6.28;3.35;;;;;;;21.81;29.71;101009.53;3582684;39;20068;-61
2022/04/21 10:06:42;;;;;;;7.30;3.72;;;;;;;21.89;29.33;101009.59;3583902;40;20140;-62
2022/04/21 10:09:09;;;;;;;4.82;2.80;;;;;;;21.97;27.80;101017.81;3583021;40;20095;-61
2022/04/21 10:11:41;;;;;;;9.50;2.78;;;;;;;21.93;26.48;101023.78;3575286;40;20182;-62
2022/04/21 10:14:13;;;;;;;7.07;2.90;;;;;;;21.95;28.15;101019.03;3579749;40;20310;-62
2022/04/21 10:16:42;;;;;;;4.78;2.53;;;;;;;22.09;26.93;101020.28;3574229;40;20143;-62
2022/04/21 10:19:10;;;;;;;5.55;2.63;;;;;;;22.10;26.76;101008.28;3574024;40;20040;-61
2022/04/21 10:22:00;;;;;;;4.90;2.50;;;;;;;22.07;25.57;101011.34;3583095;40;20197;-62
2022/04/21 10:24:28;;;;;;;4.45;2.60;;;;;;;22.01;26.70;101012.84;3575623;40;20076;-63
2022/04/21 10:26:56;;;;;;;2.50;2.15;;;;;;;21.46;24.58;100931.22;3580682;40;20048;-61
2022/04/21 10:29:27;;;;;;;4.65;2.80;;;;;;;21.97;24.94;100997.78;3574190;40;20156;-61
2022/04/21 10:31:57;;;;;;;3.25;2.50;;;;;;;21.97;25.33;101000.53;3575714;40;20122;-62
2022/04/21 10:34:37;;;;;;;2.70;2.50;;;;;;;21.96;25.80;101010.63;3573820;40;20339;-62
2022/04/21 10:37:22;;;;;;;2.72;2.38;;;;;;;21.74;26.12;101000.25;3581654;40;20658;-61
2022/04/21 10:40:11;;;;;;;4.45;2.60;;;;;;;21.84;25.41;100995.53;3577479;40;20097;-61
2022/04/21 10:42:51;;;;;;;3.95;2.70;;;;;;;21.89;25.72;100990.41;3579942;40;20067;-61
2022/04/21 10:45:32;;;;;;;2.92;2.58;;;;;;;21.97;25.74;100993.16;3574501;39;20060;-62
2022/04/21 10:48:13;;;;;;;3.45;2.40;;;;;;;22.06;25.41;100976.78;3574275;39;20228;-62
2022/04/21 10:50:42;;;;;;;2.70;2.30;;;;;;;22.23;25.77;100981.31;3581231;40;20063;-62
2022/04/21 10:58:47;;;;;;;4.65;2.20;;;;;;;22.46;25.80;100979.66;3581200;40;20122;-61
2022/04/21 11:01:31;;;;;;;3.78;1.90;;;;;;;22.36;21.47;100940.63;3573746;40;20060;-62
2022/04/21 11:04:11;;;;;;;2.35;1.70;;;;;;;22.67;22.07;100975.56;3576113;40;20062;-62
2022/04/21 11:06:47;;;;;;;4.05;1.80;;;;;;;22.79;22.41;100976.09;3581619;40;20402;-62
2022/04/21 11:09:48;;;;;;;2.72;1.67;;;;;;;22.97;22.15;100981.44;3580308;40;20122;-62
2022/04/21 11:12:17;;;;;;;3.58;1.60;;;;;;;23.21;22.21;100966.84;3575239;40;20059;-61
2022/04/21 11:14:44;;;;;;;3.25;1.60;;;;;;;23.39;22.16;100975.72;3577951;40;20079;-60
2022/04/21 11:17:10;;;;;;;2.00;1.80;;;;;;;23.24;22.41;100955.53;3572040;40;20055;-63
2022/04/21 11:19:40;;;;;;;2.35;1.70;;;;;;;23.19;22.47;100957.94;3569702;40;20060;-61
2022/04/21 11:22:12;;;;;;;2.78;1.95;;;;;;;23.35;22.06;100955.16;3582865;40;20055;-61
2022/04/21 11:24:55;;;;;;;3.53;1.75;;;;;;;23.34;23.67;100940.59;3575296;40;20092;-60
2022/04/21 11:27:26;;;;;;;2.75;1.85;;;;;;;23.49;21.69;100937.13;3576758;40;20084;-63
2022/04/21 11:29:58;;;;;;;4.68;1.80;;;;;;;23.52;20.73;100931.28;3584435;40;20047;-62
2022/04/21 11:32:24;;;;;;;6.85;1.80;;;;;;;23.58;21.95;100931.41;3572747;40;20822;-62
2022/04/21 11:35:10;;;;;;;6.35;2.05;;;;;;;23.82;21.88;100924.16;3576118;40;20075;-60
2022/04/21 11:37:54;;;;;;;2.35;2.15;;;;;;;24.02;21.99;100927.31;3583286;40;20072;-62
2022/04/21 11:40:36;;;;;;;4.82;2.17;;;;;;;24.08;20.67;100927.44;3576181;40;20240;-63
2022/04/21 11:43:19;;;;;;;4.45;1.90;;;;;;;24.27;20.51;100922.53;3576197;40;20051;-61
2022/04/21 11:45:59;;;;;;;5.10;1.90;;;;;;;24.54;22.31;100921.13;3582716;40;20060;-62
2022/04/21 11:48:33;;;;;;;5.93;2.20;;;;;;;24.67;20.06;100921.38;3572892;40;20059;-62
2022/04/21 11:50:59;;;;;;;2.22;1.73;;;;;;;24.55;20.01;100920.13;3572152;40;20048;-60
2022/04/21 11:53:42;;;;;;;3.30;2.00;;;;;;;24.48;20.28;100921.88;3577255;40;20294;-62
2022/04/21 11:56:10;;;;;;;2.47;2.03;;;;;;;24.71;20.00;100927.38;3576498;40;20086;-61
2022/04/21 11:58:44;;;;;;;3.17;2.05;;;;;;;24.67;20.41;100918.63;3574622;40;20621;-63
2022/04/21 12:06:50;;;;;;;2.53;2.00;;;;;;;24.92;19.79;100922.00;3578415;40;20113;-61
2022/04/21 12:09:21;;;;;;;3.50;2.20;;;;;;;25.08;20.89;100912.72;3582783;40;20064;-61
2022/04/21 12:12:00;;;;;;;3.25;2.30;;;;;;;25.11;20.60;100911.50;3582870;40;20063;-61
2022/04/21 12:14:28;;;;;;;2.60;2.40;;;;;;;25.24;21.23;100911.75;3573310;40;20145;-61
2022/04/21 12:17:03;;;;;;;4.70;2.33;;;;;;;25.44;20.78;100906.53;3580765;40;20090;-62
2022/04/21 12:19:46;;;;;;;2.75;2.10;;;;;;;25.51;21.90;100890.13;3572381;40;20101;-61
2022/04/21 12:22:19;;;;;;;3.75;2.05;;;;;;;25.58;20.12;100904.81;3572678;40;20204;-61
2022/04/21 12:24:50;;;;;;;3.53;2.30;;;;;;;25.56;20.12;100893.97;3582061;40;20064;-62